createdAt,value
2018-04-23T00:00:24.880Z,0.00
2018-04-23T00:02:17.722Z,0.00
2018-04-23T00:03:17.607Z,0.00
2018-04-23T00:05:10.449Z,0.00
2018-04-23T00:06:10.353Z,0.00
2018-04-23T00:08:03.259Z,0.00
2018-04-23T00:09:03.103Z,0.00
2018-04-23T00:10:56.402Z,0.00
2018-04-23T00:11:56.300Z,0.00
2018-04-23T00:13:49.152Z,0.00
2018-04-23T00:14:49.028Z,0.00
2018-04-23T00:16:41.881Z,0.00
2018-04-23T00:17:41.782Z,0.00
2018-04-23T00:19:34.671Z,0.00
2018-04-23T00:20:34.516Z,0.00
2018-04-23T00:22:27.394Z,0.00
2018-04-23T00:23:27.279Z,0.00
2018-04-23T00:25:20.110Z,0.00
2018-04-23T00:26:20.012Z,0.00
2018-04-23T00:28:12.893Z,0.00
2018-04-23T00:29:12.763Z,0.00
2018-04-23T00:31:05.629Z,0.00
2018-04-23T00:32:05.549Z,0.00
2018-04-23T00:33:58.365Z,0.00
2018-04-23T00:34:58.262Z,0.00
2018-04-23T00:36:51.155Z,0.00
2018-04-23T00:37:51.012Z,0.00
2018-04-23T00:39:43.924Z,0.00
2018-04-23T00:40:43.777Z,0.00
2018-04-23T00:42:36.628Z,0.00
2018-04-23T00:43:36.516Z,0.00
2018-04-23T00:45:29.382Z,0.00
2018-04-23T00:46:29.303Z,0.00
2018-04-23T00:48:22.514Z,0.00
2018-04-23T00:49:22.442Z,0.00
2018-04-23T00:51:15.279Z,0.00
2018-04-23T00:52:15.181Z,0.00
2018-04-23T00:54:08.021Z,0.00
2018-04-23T00:55:07.917Z,0.00
2018-04-23T00:57:00.805Z,0.00
2018-04-23T00:58:00.682Z,0.00
2018-04-23T00:59:53.534Z,0.00
2018-04-23T01:00:53.419Z,0.00
2018-04-23T01:02:46.276Z,0.00
2018-04-23T01:03:46.181Z,0.00
2018-04-23T01:05:39.047Z,0.00
2018-04-23T01:06:38.922Z,0.00
2018-04-23T01:08:31.768Z,0.00
2018-04-23T01:09:31.677Z,0.00
2018-04-23T01:11:24.427Z,0.00
2018-04-23T01:12:24.324Z,0.00
2018-04-23T01:14:17.154Z,0.00
2018-04-23T01:15:17.109Z,0.00
2018-04-23T01:17:09.921Z,0.00
2018-04-23T01:18:09.833Z,0.00
2018-04-23T01:20:02.551Z,0.00
2018-04-23T01:21:02.464Z,0.00
2018-04-23T01:22:55.327Z,0.00
2018-04-23T01:23:55.207Z,0.00
2018-04-23T01:25:47.990Z,0.00
2018-04-23T01:26:47.932Z,0.00
2018-04-23T01:28:40.740Z,0.00
2018-04-23T01:29:40.608Z,0.00
2018-04-23T01:31:33.441Z,0.00
2018-04-23T01:32:33.365Z,0.00
2018-04-23T01:34:26.204Z,0.00
2018-04-23T01:35:26.123Z,0.00
2018-04-23T01:37:18.861Z,0.00
2018-04-23T01:38:18.761Z,0.00
2018-04-23T01:40:11.627Z,0.00
2018-04-23T01:41:11.499Z,0.00
2018-04-23T01:43:04.341Z,0.00
2018-04-23T01:44:04.254Z,0.00
2018-04-23T01:45:57.618Z,0.00
2018-04-23T01:46:57.415Z,0.00
2018-04-23T01:48:50.275Z,0.00
2018-04-23T01:49:50.171Z,0.00
2018-04-23T01:51:42.996Z,0.00
2018-04-23T01:52:42.912Z,0.00
2018-04-23T01:54:35.787Z,0.00
2018-04-23T01:55:35.659Z,0.00
2018-04-23T01:57:28.923Z,0.00
2018-04-23T01:58:28.834Z,0.00
2018-04-23T02:00:21.679Z,0.00
2018-04-23T02:01:21.571Z,0.00
2018-04-23T02:03:14.415Z,0.00
2018-04-23T02:04:14.312Z,0.00
2018-04-23T02:06:07.169Z,0.00
2018-04-23T02:07:07.075Z,0.00
2018-04-23T02:08:59.930Z,0.00
2018-04-23T02:09:59.816Z,0.00
2018-04-23T02:11:53.113Z,0.00
2018-04-23T02:12:53.045Z,0.00
2018-04-23T02:14:45.834Z,0.00
2018-04-23T02:15:45.723Z,0.00
2018-04-23T02:17:38.582Z,0.00
2018-04-23T02:18:38.477Z,0.00
2018-04-23T02:20:31.315Z,0.00
2018-04-23T02:21:31.230Z,0.00
2018-04-23T02:23:24.084Z,0.00
2018-04-23T02:24:23.974Z,0.00
2018-04-23T02:26:16.833Z,0.00
2018-04-23T02:27:16.733Z,0.00
2018-04-23T02:29:09.596Z,0.00
2018-04-23T02:30:09.486Z,0.00
2018-04-23T02:32:02.312Z,0.00
2018-04-23T02:33:02.219Z,0.00
2018-04-23T02:34:55.075Z,0.00
2018-04-23T02:35:54.977Z,0.00
2018-04-23T02:37:47.811Z,0.00
2018-04-23T02:38:47.733Z,0.00
2018-04-23T02:40:40.596Z,0.00
2018-04-23T02:41:40.481Z,0.00
2018-04-23T02:43:33.332Z,0.00
2018-04-23T02:44:33.225Z,0.00
2018-04-23T02:46:26.065Z,0.00
2018-04-23T02:47:25.984Z,0.00
2018-04-23T02:49:18.840Z,0.00
2018-04-23T02:50:18.733Z,0.00
2018-04-23T02:52:11.486Z,0.00
2018-04-23T02:53:11.360Z,0.00
2018-04-23T02:55:04.234Z,0.00
2018-04-23T02:56:04.110Z,0.00
2018-04-23T02:57:56.856Z,0.00
2018-04-23T02:58:56.768Z,0.00
2018-04-23T03:00:49.645Z,0.00
2018-04-23T03:01:49.520Z,0.00
2018-04-23T03:03:42.263Z,0.00
2018-04-23T03:04:42.160Z,0.00
2018-04-23T03:06:35.009Z,0.00
2018-04-23T03:07:34.905Z,0.00
2018-04-23T03:09:27.754Z,0.00
2018-04-23T03:10:27.685Z,0.00
2018-04-23T03:12:20.519Z,0.00
2018-04-23T03:13:20.405Z,0.00
2018-04-23T03:15:13.247Z,0.00
2018-04-23T03:16:13.162Z,0.00
2018-04-23T03:18:06.006Z,0.00
2018-04-23T03:19:05.903Z,0.00
2018-04-23T03:20:58.776Z,0.00
2018-04-23T03:21:58.665Z,0.00
2018-04-23T03:23:51.498Z,0.00
2018-04-23T03:24:51.408Z,0.00
2018-04-23T03:26:44.290Z,0.00
2018-04-23T03:27:44.151Z,0.00
2018-04-23T03:29:37.509Z,0.00
2018-04-23T03:30:36.902Z,0.00
2018-04-23T03:32:29.773Z,0.00
2018-04-23T03:33:29.657Z,0.00
2018-04-23T03:35:22.570Z,0.00
2018-04-23T03:36:22.417Z,0.00
2018-04-23T03:38:15.285Z,0.00
2018-04-23T03:39:15.163Z,0.00
2018-04-23T03:41:08.020Z,0.00
2018-04-23T03:42:07.905Z,0.00
2018-04-23T03:44:00.767Z,0.00
2018-04-23T03:45:00.649Z,0.00
2018-04-23T03:46:53.501Z,0.00
2018-04-23T03:47:53.406Z,0.00
2018-04-23T03:49:46.265Z,0.00
2018-04-23T03:50:46.151Z,0.00
2018-04-23T03:52:39.010Z,0.00
2018-04-23T03:53:38.943Z,0.00
2018-04-23T03:55:31.748Z,0.00
2018-04-23T03:56:31.548Z,0.00
2018-04-23T03:58:24.394Z,0.00
2018-04-23T03:59:24.321Z,4.00
2018-04-23T04:01:17.175Z,0.00
2018-04-23T04:02:17.047Z,4.00
2018-04-23T04:04:10.015Z,4.00
2018-04-23T04:05:09.930Z,8.00
2018-04-23T04:07:02.959Z,12.00
2018-04-23T04:08:02.876Z,12.00
2018-04-23T04:09:56.124Z,16.00
2018-04-23T04:10:56.037Z,20.00
2018-04-23T04:12:49.397Z,24.00
2018-04-23T04:13:49.194Z,28.00
2018-04-23T04:15:42.056Z,40.00
2018-04-23T04:16:41.933Z,44.00
2018-04-23T04:18:34.669Z,52.00
2018-04-23T04:19:34.586Z,56.00
2018-04-23T04:21:27.449Z,64.00
2018-04-23T04:22:27.325Z,64.00
2018-04-23T04:24:20.088Z,72.00
2018-04-23T04:25:19.972Z,76.00
2018-04-23T04:27:12.725Z,80.00
2018-04-23T04:28:12.632Z,84.00
2018-04-23T04:30:05.483Z,92.00
2018-04-23T04:31:05.393Z,96.00
2018-04-23T04:32:58.128Z,108.00
2018-04-23T04:33:58.019Z,116.00
2018-04-23T04:35:50.889Z,124.00
2018-04-23T04:36:50.774Z,128.00
2018-04-23T04:38:43.657Z,136.00
2018-04-23T04:39:43.517Z,140.00
2018-04-23T04:41:36.523Z,144.00
2018-04-23T04:42:36.294Z,148.00
2018-04-23T04:44:29.136Z,160.00
2018-04-23T04:45:29.026Z,168.00
2018-04-23T04:47:21.778Z,184.00
2018-04-23T04:48:21.681Z,192.00
2018-04-23T04:50:14.433Z,212.00
2018-04-23T04:51:14.320Z,228.00
2018-04-23T04:53:07.092Z,252.00
2018-04-23T04:54:06.972Z,268.00
2018-04-23T04:55:59.835Z,292.00
2018-04-23T04:56:59.725Z,300.00
2018-04-23T04:58:52.475Z,324.00
2018-04-23T04:59:52.371Z,336.00
2018-04-23T05:01:45.230Z,364.00
2018-04-23T05:02:45.123Z,380.00
2018-04-23T05:04:38.379Z,404.00
2018-04-23T05:05:38.262Z,420.00
2018-04-23T05:07:31.221Z,452.00
2018-04-23T05:08:31.135Z,476.00
2018-04-23T05:10:23.899Z,508.00
2018-04-23T05:11:23.797Z,524.00
2018-04-23T05:13:16.639Z,552.00
2018-04-23T05:14:16.519Z,568.00
2018-04-23T05:16:09.287Z,604.00
2018-04-23T05:17:09.167Z,624.00
2018-04-23T05:19:02.028Z,652.00
2018-04-23T05:20:01.900Z,660.00
2018-04-23T05:21:54.754Z,680.00
2018-04-23T05:22:54.652Z,684.00
2018-04-23T05:24:48.012Z,712.00
2018-04-23T05:25:47.945Z,728.00
2018-04-23T05:27:40.662Z,752.00
2018-04-23T05:28:40.574Z,752.00
2018-04-23T05:30:33.512Z,764.00
2018-04-23T05:31:33.411Z,780.00
2018-04-23T05:33:26.264Z,812.00
2018-04-23T05:34:26.162Z,824.00
2018-04-23T05:36:18.926Z,844.00
2018-04-23T05:37:18.848Z,860.00
2018-04-23T05:39:11.683Z,896.00
2018-04-23T05:40:11.570Z,908.00
2018-04-23T05:42:04.424Z,916.00
2018-04-23T05:43:04.365Z,916.00
2018-04-23T05:44:57.151Z,916.00
2018-04-23T05:45:57.067Z,924.00
2018-04-23T05:47:50.002Z,916.00
2018-04-23T05:48:49.843Z,896.00
2018-04-23T05:50:42.714Z,832.00
2018-04-23T05:51:42.570Z,828.00
2018-04-23T05:53:35.335Z,816.00
2018-04-23T05:54:35.209Z,816.00
2018-04-23T05:56:28.084Z,744.00
2018-04-23T05:57:27.972Z,684.00
2018-04-23T05:59:20.805Z,552.00
2018-04-23T06:00:20.720Z,488.00
2018-04-23T06:02:13.459Z,356.00
2018-04-23T06:03:13.354Z,296.00
2018-04-23T06:05:06.247Z,248.00
2018-04-23T06:06:06.097Z,260.00
2018-04-23T06:07:58.959Z,272.00
2018-04-23T06:08:58.870Z,276.00
2018-04-23T06:10:52.814Z,296.00
2018-04-23T06:11:52.651Z,308.00
2018-04-23T06:13:45.447Z,320.00
2018-04-23T06:14:45.295Z,332.00
2018-04-23T06:16:38.145Z,356.00
2018-04-23T06:17:38.018Z,368.00
2018-04-23T06:19:30.874Z,352.00
2018-04-23T06:20:30.774Z,336.00
2018-04-23T06:22:23.611Z,332.00
2018-04-23T06:23:23.513Z,348.00
2018-04-23T06:25:17.275Z,404.00
2018-04-23T06:26:16.273Z,444.00
2018-04-23T06:28:09.176Z,508.00
2018-04-23T06:29:09.013Z,548.00
2018-04-23T06:31:01.787Z,592.00
2018-04-23T06:32:01.659Z,608.00
2018-04-23T06:33:54.503Z,644.00
2018-04-23T06:34:54.409Z,652.00
2018-04-23T06:36:47.174Z,648.00
2018-04-23T06:37:47.062Z,644.00
2018-04-23T06:39:39.985Z,636.00
2018-04-23T06:40:39.806Z,628.00
2018-04-23T06:42:32.582Z,592.00
2018-04-23T06:43:32.477Z,576.00
2018-04-23T06:45:25.310Z,560.00
2018-04-23T06:46:25.287Z,548.00
2018-04-23T06:48:18.048Z,548.00
2018-04-23T06:49:17.967Z,548.00
2018-04-23T06:51:10.840Z,552.00
2018-04-23T06:52:10.699Z,560.00
2018-04-23T06:54:03.546Z,596.00
2018-04-23T06:55:03.469Z,620.00
2018-04-23T06:56:56.315Z,668.00
2018-04-23T06:57:56.237Z,692.00
2018-04-23T06:59:49.048Z,708.00
2018-04-23T07:00:48.950Z,712.00
2018-04-23T07:02:41.813Z,716.00
2018-04-23T07:03:41.708Z,728.00
2018-04-23T07:05:34.547Z,760.00
2018-04-23T07:06:34.454Z,768.00
2018-04-23T07:08:27.329Z,760.00
2018-04-23T07:09:27.201Z,764.00
2018-04-23T07:11:20.042Z,808.00
2018-04-23T07:12:19.945Z,836.00
2018-04-23T07:14:12.805Z,876.00
2018-04-23T07:15:12.711Z,884.00
2018-04-23T07:17:05.558Z,872.00
2018-04-23T07:18:05.464Z,864.00
2018-04-23T07:19:58.215Z,856.00
2018-04-23T07:20:58.102Z,840.00
2018-04-23T07:22:50.972Z,796.00
2018-04-23T07:23:50.860Z,784.00
2018-04-23T07:25:43.726Z,784.00
2018-04-23T07:26:43.598Z,776.00
2018-04-23T07:28:36.864Z,748.00
2018-04-23T07:29:36.792Z,744.00
2018-04-23T07:31:29.593Z,768.00
2018-04-23T07:32:29.510Z,792.00
2018-04-23T07:34:22.804Z,848.00
2018-04-23T07:35:22.693Z,900.00
2018-04-23T07:37:15.503Z,1016.00
2018-04-23T07:38:15.413Z,1096.00
2018-04-23T07:40:08.281Z,1252.00
2018-04-23T07:41:08.172Z,1328.00
2018-04-23T07:43:00.930Z,1428.00
2018-04-23T07:44:00.817Z,1472.00
2018-04-23T07:45:53.661Z,1556.00
2018-04-23T07:46:53.555Z,1592.00
2018-04-23T07:48:46.305Z,1632.00
2018-04-23T07:49:46.216Z,1660.00
2018-04-23T07:51:40.533Z,1748.00
2018-04-23T07:52:40.388Z,1808.00
2018-04-23T07:54:33.246Z,1896.00
2018-04-23T07:55:33.143Z,1932.00
2018-04-23T07:57:26.007Z,1964.00
2018-04-23T07:58:25.890Z,1996.00
2018-04-23T08:00:18.783Z,2024.00
2018-04-23T08:01:18.660Z,2036.00
2018-04-23T08:03:11.499Z,2052.00
2018-04-23T08:04:11.399Z,2052.00
2018-04-23T08:06:04.261Z,2068.00
2018-04-23T08:07:04.149Z,2072.00
2018-04-23T08:08:56.977Z,2044.00
2018-04-23T08:09:56.884Z,2028.00
2018-04-23T08:11:49.737Z,2040.00
2018-04-23T08:12:49.651Z,2092.00
2018-04-23T08:14:42.476Z,2160.00
2018-04-23T08:15:42.383Z,2124.00
2018-04-23T08:17:35.271Z,2060.00
2018-04-23T08:18:35.139Z,2056.00
2018-04-23T08:20:27.978Z,2092.00
2018-04-23T08:21:27.881Z,2096.00
2018-04-23T08:23:20.748Z,2152.00
2018-04-23T08:24:20.644Z,2180.00
2018-04-23T08:26:13.511Z,2208.00
2018-04-23T08:27:13.398Z,2284.00
2018-04-23T08:29:06.232Z,2472.00
2018-04-23T08:30:06.152Z,2572.00
2018-04-23T08:31:59.556Z,2792.00
2018-04-23T08:32:59.394Z,2884.00
2018-04-23T08:34:52.260Z,2908.00
2018-04-23T08:35:52.145Z,3212.00
2018-04-23T08:37:45.006Z,3192.00
2018-04-23T08:38:45.010Z,3504.00
2018-04-23T08:40:37.745Z,4332.00
2018-04-23T08:41:37.652Z,4400.00
2018-04-23T08:43:30.524Z,4284.00
2018-04-23T08:44:30.411Z,4144.00
2018-04-23T08:46:23.241Z,3832.00
2018-04-23T08:47:23.173Z,3668.00
2018-04-23T08:49:16.014Z,3532.00
2018-04-23T08:50:15.896Z,3688.00
2018-04-23T08:52:09.163Z,3772.00
2018-04-23T08:53:09.094Z,3764.00
2018-04-23T08:55:01.917Z,3932.00
2018-04-23T08:56:01.807Z,4164.00
2018-04-23T08:57:54.655Z,4240.00
2018-04-23T08:58:54.561Z,3364.00
2018-04-23T09:00:47.404Z,3300.00
2018-04-23T09:01:47.319Z,3252.00
2018-04-23T09:03:40.159Z,3272.00
2018-04-23T09:04:40.067Z,3360.00
2018-04-23T09:06:32.911Z,3292.00
2018-04-23T09:07:32.844Z,3204.00
2018-04-23T09:09:25.685Z,2988.00
2018-04-23T09:10:25.569Z,2876.00
2018-04-23T09:12:18.409Z,2836.00
2018-04-23T09:13:18.326Z,2940.00
2018-04-23T09:15:11.585Z,2956.00
2018-04-23T09:16:11.506Z,2960.00
2018-04-23T09:18:04.329Z,3076.00
2018-04-23T09:19:04.229Z,3164.00
2018-04-23T09:20:57.090Z,3120.00
2018-04-23T09:21:56.982Z,3212.00
2018-04-23T09:23:49.816Z,3812.00
2018-04-23T09:24:49.723Z,3876.00
2018-04-23T09:26:42.579Z,4052.00
2018-04-23T09:27:42.491Z,3896.00
2018-04-23T09:29:35.307Z,3888.00
2018-04-23T09:30:35.260Z,3848.00
2018-04-23T09:32:28.082Z,3940.00
2018-04-23T09:33:27.973Z,3848.00
2018-04-23T09:35:20.810Z,3228.00
2018-04-23T09:36:20.726Z,4076.00
2018-04-23T09:38:13.579Z,4160.00
2018-04-23T09:39:13.467Z,3844.00
2018-04-23T09:41:06.313Z,2940.00
2018-04-23T09:42:06.218Z,2684.00
2018-04-23T09:43:59.089Z,2480.00
2018-04-23T09:44:59.169Z,2588.00
2018-04-23T09:46:51.821Z,2852.00
2018-04-23T09:47:51.716Z,2752.00
2018-04-23T09:49:44.585Z,3548.00
2018-04-23T09:50:44.459Z,2908.00
2018-04-23T09:52:37.303Z,3448.00
2018-04-23T09:53:37.205Z,2544.00
2018-04-23T09:55:30.075Z,2368.00
2018-04-23T09:56:29.996Z,1992.00
2018-04-23T09:58:22.904Z,1768.00
2018-04-23T09:59:22.802Z,1724.00
2018-04-23T10:01:15.583Z,1676.00
2018-04-23T10:02:15.476Z,1520.00
2018-04-23T10:04:08.337Z,1344.00
2018-04-23T10:05:08.322Z,1396.00
2018-04-23T10:07:01.083Z,1704.00
2018-04-23T10:08:00.996Z,1668.00
2018-04-23T10:09:53.843Z,1672.00
2018-04-23T10:10:53.743Z,1768.00
2018-04-23T10:12:46.593Z,1892.00
2018-04-23T10:13:46.453Z,2000.00
2018-04-23T10:15:39.732Z,2308.00
2018-04-23T10:16:39.613Z,2396.00
2018-04-23T10:18:32.468Z,2880.00
2018-04-23T10:19:32.385Z,2788.00
2018-04-23T10:21:25.219Z,3868.00
2018-04-23T10:22:25.151Z,3204.00
2018-04-23T10:24:17.977Z,4092.00
2018-04-23T10:25:17.865Z,3464.00
2018-04-23T10:27:10.741Z,4496.00
2018-04-23T10:28:10.640Z,3988.00
2018-04-23T10:30:03.458Z,3444.00
2018-04-23T10:31:03.371Z,3656.00
2018-04-23T10:32:56.226Z,3528.00
2018-04-23T10:33:56.128Z,4428.00
2018-04-23T10:35:48.971Z,3304.00
2018-04-23T10:36:50.385Z,3464.00
2018-04-23T10:38:41.718Z,4216.00
2018-04-23T10:39:41.625Z,4600.00
2018-04-23T10:41:34.479Z,2796.00
2018-04-23T10:42:34.371Z,3916.00
2018-04-23T10:44:27.252Z,2700.00
2018-04-23T10:45:27.177Z,3120.00
2018-04-23T10:47:19.972Z,4020.00
2018-04-23T10:48:19.876Z,3976.00
2018-04-23T10:50:12.703Z,2676.00
2018-04-23T10:51:12.634Z,2104.00
2018-04-23T10:53:05.485Z,2768.00
2018-04-23T10:54:05.371Z,3084.00
2018-04-23T10:55:58.203Z,2064.00
2018-04-23T10:56:58.102Z,1844.00
2018-04-23T10:58:50.972Z,2008.00
2018-04-23T10:59:50.865Z,1864.00
2018-04-23T11:01:43.695Z,1860.00
2018-04-23T11:02:43.622Z,1956.00
2018-04-23T11:04:36.468Z,2132.00
2018-04-23T11:05:36.359Z,2160.00
2018-04-23T11:07:29.203Z,2260.00
2018-04-23T11:08:29.112Z,2300.00
2018-04-23T11:10:21.967Z,2692.00
2018-04-23T11:11:21.854Z,4464.00
2018-04-23T11:13:14.700Z,4404.00
2018-04-23T11:14:14.611Z,4128.00
2018-04-23T11:16:07.469Z,4104.00
2018-04-23T11:17:07.384Z,2644.00
2018-04-23T11:19:00.205Z,4112.00
2018-04-23T11:20:00.100Z,4204.00
2018-04-23T11:21:53.004Z,3892.00
2018-04-23T11:22:52.922Z,4012.00
2018-04-23T11:24:45.737Z,4044.00
2018-04-23T11:25:45.684Z,3780.00
2018-04-23T11:27:38.458Z,3956.00
2018-04-23T11:28:38.354Z,3904.00
2018-04-23T11:30:31.206Z,3476.00
2018-04-23T11:31:31.114Z,2256.00
2018-04-23T11:33:23.944Z,2248.00
2018-04-23T11:34:23.854Z,2152.00
2018-04-23T11:36:16.746Z,3780.00
2018-04-23T11:37:16.599Z,2372.00
2018-04-23T11:39:09.467Z,2896.00
2018-04-23T11:40:09.346Z,2180.00
2018-04-23T11:42:02.216Z,1988.00
2018-04-23T11:43:02.121Z,2088.00
2018-04-23T11:44:54.941Z,2460.00
2018-04-23T11:45:54.848Z,2888.00
2018-04-23T11:47:47.705Z,2696.00
2018-04-23T11:48:47.617Z,2328.00
2018-04-23T11:50:40.451Z,2420.00
2018-04-23T11:51:40.359Z,2620.00
2018-04-23T11:53:33.238Z,2940.00
2018-04-23T11:54:33.106Z,3044.00
2018-04-23T11:56:26.006Z,2120.00
2018-04-23T11:57:25.854Z,2408.00
2018-04-23T11:59:18.756Z,2420.00
2018-04-23T12:00:18.615Z,3668.00
2018-04-23T12:02:11.453Z,2976.00
2018-04-23T12:03:11.351Z,2716.00
2018-04-23T12:05:04.203Z,3368.00
2018-04-23T12:06:04.112Z,3000.00
2018-04-23T12:07:56.987Z,3452.00
2018-04-23T12:08:56.842Z,2824.00
2018-04-23T12:10:49.710Z,2792.00
2018-04-23T12:11:49.604Z,3492.00
2018-04-23T12:13:42.456Z,4484.00
2018-04-23T12:14:42.367Z,4324.00
2018-04-23T12:16:35.200Z,3400.00
2018-04-23T12:17:35.099Z,2828.00
2018-04-23T12:19:27.954Z,3768.00
2018-04-23T12:20:27.852Z,4396.00
2018-04-23T12:22:20.681Z,3364.00
2018-04-23T12:23:20.605Z,3232.00
2018-04-23T12:25:13.509Z,2620.00
2018-04-23T12:26:13.354Z,2488.00
2018-04-23T12:28:06.183Z,2760.00
2018-04-23T12:29:06.092Z,3608.00
2018-04-23T12:30:58.958Z,2936.00
2018-04-23T12:31:58.837Z,3608.00
2018-04-23T12:33:51.710Z,3744.00
2018-04-23T12:34:51.612Z,3032.00
2018-04-23T12:36:44.461Z,3592.00
2018-04-23T12:37:44.349Z,3692.00
2018-04-23T12:39:37.220Z,4428.00
2018-04-23T12:40:37.088Z,4192.00
2018-04-23T12:42:29.931Z,3196.00
2018-04-23T12:43:29.842Z,3588.00
2018-04-23T12:45:22.737Z,4124.00
2018-04-23T12:46:22.593Z,4168.00
2018-04-23T12:48:15.446Z,3204.00
2018-04-23T12:49:15.352Z,3804.00
2018-04-23T12:51:08.716Z,3856.00
2018-04-23T12:52:08.151Z,3544.00
2018-04-23T12:54:00.936Z,3312.00
2018-04-23T12:55:00.834Z,3756.00
2018-04-23T12:56:53.705Z,3612.00
2018-04-23T12:57:53.596Z,3824.00
2018-04-23T12:59:46.437Z,3440.00
2018-04-23T13:00:46.338Z,3484.00
2018-04-23T13:02:39.195Z,3484.00
2018-04-23T13:03:39.086Z,3308.00
2018-04-23T13:05:31.928Z,3544.00
2018-04-23T13:06:31.846Z,3772.00
2018-04-23T13:08:24.694Z,3360.00
2018-04-23T13:09:24.585Z,3308.00
2018-04-23T13:11:17.432Z,3160.00
2018-04-23T13:12:17.391Z,3524.00
2018-04-23T13:14:10.622Z,4464.00
2018-04-23T13:15:10.200Z,3732.00
2018-04-23T13:17:03.338Z,4700.00
2018-04-23T13:18:03.264Z,4172.00
2018-04-23T13:19:56.100Z,4168.00
2018-04-23T13:20:56.023Z,3668.00
2018-04-23T13:22:48.913Z,4832.00
2018-04-23T13:23:48.754Z,4788.00
2018-04-23T13:25:41.632Z,4664.00
2018-04-23T13:26:41.489Z,4464.00
2018-04-23T13:28:34.386Z,4060.00
2018-04-23T13:29:34.242Z,4484.00
2018-04-23T13:31:27.151Z,4620.00
2018-04-23T13:32:27.014Z,4484.00
2018-04-23T13:34:20.402Z,4268.00
2018-04-23T13:35:20.215Z,4416.00
2018-04-23T13:37:13.311Z,4216.00
2018-04-23T13:38:12.928Z,4268.00
2018-04-23T13:40:06.502Z,4212.00
2018-04-23T13:41:06.378Z,4020.00
2018-04-23T13:42:59.219Z,4156.00
2018-04-23T13:43:59.126Z,4096.00
2018-04-23T13:45:52.522Z,4220.00
2018-04-23T13:46:52.423Z,4476.00
2018-04-23T13:48:45.233Z,4348.00
2018-04-23T13:49:45.172Z,4360.00
2018-04-23T13:51:37.992Z,4836.00
2018-04-23T13:52:37.887Z,4488.00
2018-04-23T13:54:30.718Z,4680.00
2018-04-23T13:55:30.679Z,4756.00
2018-04-23T13:57:24.044Z,5064.00
2018-04-23T13:58:23.921Z,5096.00
2018-04-23T14:00:16.750Z,5036.00
2018-04-23T14:01:16.668Z,4936.00
2018-04-23T14:03:09.508Z,4892.00
2018-04-23T14:04:09.393Z,4940.00
2018-04-23T14:06:02.268Z,4996.00
2018-04-23T14:07:02.192Z,4880.00
2018-04-23T14:08:56.038Z,4536.00
2018-04-23T14:09:55.922Z,3620.00
2018-04-23T14:11:48.768Z,4928.00
2018-04-23T14:12:48.675Z,4980.00
2018-04-23T14:14:42.373Z,3856.00
2018-04-23T14:15:42.663Z,3728.00
2018-04-23T14:17:34.266Z,4700.00
2018-04-23T14:18:34.184Z,4608.00
2018-04-23T14:20:26.999Z,3940.00
2018-04-23T14:21:26.931Z,3484.00
2018-04-23T14:23:19.774Z,4612.00
2018-04-23T14:24:19.670Z,4548.00
2018-04-23T14:26:14.391Z,3456.00
2018-04-23T14:27:13.491Z,3380.00
2018-04-23T14:29:05.283Z,4260.00
2018-04-23T14:30:05.176Z,4140.00
2018-04-23T14:31:58.021Z,3216.00
2018-04-23T14:32:57.916Z,3200.00
2018-04-23T14:34:50.807Z,3220.00
2018-04-23T14:35:50.678Z,3704.00
2018-04-23T14:37:43.525Z,3268.00
2018-04-23T14:38:43.728Z,3236.00
2018-04-23T14:40:36.267Z,3412.00
2018-04-23T14:41:36.157Z,3568.00
2018-04-23T14:43:29.432Z,3932.00
2018-04-23T14:44:29.326Z,4104.00
2018-04-23T14:46:22.203Z,4352.00
2018-04-23T14:47:22.075Z,5412.00
2018-04-23T14:49:15.977Z,5328.00
2018-04-23T14:50:15.060Z,5224.00
2018-04-23T14:52:07.687Z,5016.00
2018-04-23T14:53:07.604Z,4852.00
2018-04-23T14:55:00.455Z,4228.00
2018-04-23T14:56:00.320Z,4528.00
2018-04-23T14:57:54.183Z,3844.00
2018-04-23T14:58:53.592Z,4740.00
2018-04-23T15:00:46.872Z,4896.00
2018-04-23T15:01:46.389Z,4960.00
2018-04-23T15:03:39.166Z,4804.00
2018-04-23T15:04:39.083Z,4596.00
2018-04-23T15:06:32.359Z,4280.00
2018-04-23T15:07:32.245Z,4184.00
2018-04-23T15:09:25.089Z,3432.00
2018-04-23T15:10:25.014Z,4456.00
2018-04-23T15:12:18.367Z,3776.00
2018-04-23T15:13:18.272Z,3900.00
2018-04-23T15:15:11.085Z,4092.00
2018-04-23T15:16:11.003Z,4540.00
2018-04-23T15:18:04.258Z,5312.00
2018-04-23T15:19:04.175Z,4556.00
2018-04-23T15:21:03.128Z,4276.00
2018-04-23T15:22:02.861Z,4452.00
2018-04-23T15:24:08.274Z,5524.00
2018-04-23T15:25:07.940Z,5556.00
2018-04-23T15:27:00.662Z,5660.00
2018-04-23T15:28:00.535Z,5712.00
2018-04-23T15:29:53.893Z,5812.00
2018-04-23T15:30:54.148Z,5728.00
2018-04-23T15:32:46.644Z,5500.00
2018-04-23T15:33:47.348Z,5304.00
2018-04-23T15:35:39.389Z,4984.00
2018-04-23T15:36:39.297Z,4916.00
2018-04-23T15:38:32.158Z,4756.00
2018-04-23T15:39:32.048Z,4664.00
2018-04-23T15:41:24.917Z,4944.00
2018-04-23T15:42:24.867Z,5148.00
2018-04-23T15:44:17.933Z,5440.00
2018-04-23T15:45:17.575Z,5292.00
2018-04-23T15:47:10.447Z,4464.00
2018-04-23T15:48:10.329Z,4700.00
2018-04-23T15:50:03.135Z,5964.00
2018-04-23T15:51:03.047Z,5940.00
2018-04-23T15:52:58.249Z,6112.00
2018-04-23T15:53:58.150Z,6284.00
2018-04-23T15:55:50.997Z,6476.00
2018-04-23T15:56:50.899Z,6504.00
2018-04-23T15:58:43.756Z,6652.00
2018-04-23T15:59:44.855Z,6704.00
2018-04-23T16:01:36.518Z,6820.00
2018-04-23T16:02:36.399Z,6908.00
2018-04-23T16:04:29.280Z,6968.00
2018-04-23T16:05:29.456Z,7084.00
2018-04-23T16:07:22.022Z,7232.00
2018-04-23T16:08:21.905Z,7188.00
2018-04-23T16:11:16.427Z,7452.00
2018-04-23T16:13:07.617Z,7624.00
2018-04-23T16:14:07.511Z,7512.00
2018-04-23T16:16:00.327Z,7532.00
2018-04-23T16:17:00.249Z,7452.00
2018-04-23T16:18:53.195Z,6844.00
2018-04-23T16:19:53.117Z,6692.00
2018-04-23T16:21:50.985Z,5924.00
2018-04-23T16:22:49.855Z,4856.00
2018-04-23T16:24:41.934Z,4328.00
2018-04-23T16:25:39.017Z,4936.00
2018-04-23T16:27:31.875Z,4524.00
2018-04-23T16:28:31.774Z,4108.00
2018-04-23T16:30:26.738Z,3472.00
2018-04-23T16:31:25.530Z,3492.00
2018-04-23T16:33:19.389Z,4352.00
2018-04-23T16:34:23.158Z,5320.00
2018-04-23T16:36:11.131Z,4952.00
2018-04-23T16:37:11.031Z,4924.00
2018-04-23T16:39:03.902Z,6464.00
2018-04-23T16:40:03.786Z,7076.00
2018-04-23T16:41:57.451Z,8584.00
2018-04-23T16:42:57.354Z,8452.00
2018-04-23T16:44:50.545Z,7304.00
2018-04-23T16:45:50.126Z,4164.00
2018-04-23T16:47:42.946Z,5704.00
2018-04-23T16:48:42.867Z,7048.00
2018-04-23T16:50:35.746Z,13888.00
2018-04-23T16:51:35.605Z,23264.00
2018-04-23T16:53:28.441Z,12040.00
2018-04-23T16:54:28.492Z,10888.00
2018-04-23T16:56:22.236Z,15744.00
2018-04-23T16:57:21.616Z,7516.00
2018-04-23T16:59:14.445Z,3488.00
2018-04-23T17:00:14.362Z,2108.00
2018-04-23T17:02:07.215Z,2148.00
2018-04-23T17:03:07.120Z,2376.00
2018-04-23T17:04:59.937Z,4632.00
2018-04-23T17:05:59.854Z,6704.00
2018-04-23T17:07:53.996Z,1828.00
2018-04-23T17:08:52.621Z,2016.00
2018-04-23T17:10:45.456Z,3304.00
2018-04-23T17:11:45.354Z,1984.00
2018-04-23T17:13:38.359Z,1260.00
2018-04-23T17:14:38.114Z,1208.00
2018-04-23T17:16:30.956Z,1432.00
2018-04-23T17:17:30.857Z,1444.00
2018-04-23T17:19:24.219Z,1752.00
2018-04-23T17:20:24.116Z,1516.00
2018-04-23T17:22:16.975Z,2100.00
2018-04-23T17:23:16.858Z,1868.00
2018-04-23T17:25:09.730Z,4096.00
2018-04-23T17:26:09.631Z,3956.00
2018-04-23T17:28:02.491Z,1164.00
2018-04-23T17:29:02.387Z,1056.00
2018-04-23T17:30:55.212Z,952.00
2018-04-23T17:31:55.113Z,920.00
2018-04-23T17:33:47.973Z,832.00
2018-04-23T17:34:47.856Z,784.00
2018-04-23T17:36:40.741Z,788.00
2018-04-23T17:37:40.611Z,804.00
2018-04-23T17:39:33.466Z,896.00
2018-04-23T17:40:33.353Z,868.00
2018-04-23T17:42:26.630Z,852.00
2018-04-23T17:43:26.549Z,824.00
2018-04-23T17:45:19.762Z,768.00
2018-04-23T17:46:19.700Z,756.00
2018-04-23T17:48:12.545Z,736.00
2018-04-23T17:49:12.421Z,728.00
2018-04-23T17:51:05.309Z,704.00
2018-04-23T17:52:05.189Z,680.00
2018-04-23T17:53:58.207Z,636.00
2018-04-23T17:54:57.929Z,616.00
2018-04-23T17:56:50.777Z,596.00